createdAt,value
2022-10-13T00:00:14.635Z,-45
2022-10-13T00:01:20.897Z,-43
2022-10-13T00:02:27.166Z,-43
2022-10-13T00:03:33.442Z,-43
2022-10-13T00:04:39.745Z,-43
2022-10-13T00:05:45.000Z,-43
2022-10-13T00:06:51.275Z,-43
2022-10-13T00:07:57.549Z,-44
2022-10-13T00:09:03.844Z,-43
2022-10-13T00:10:10.101Z,-44
2022-10-13T00:11:16.362Z,-43
2022-10-13T00:12:22.637Z,-43
2022-10-13T00:13:28.921Z,-43
2022-10-13T00:14:35.184Z,-43
2022-10-13T00:15:41.458Z,-43
2022-10-13T00:16:47.727Z,-43
2022-10-13T00:17:54.001Z,-44
2022-10-13T00:18:59.300Z,-43
2022-10-13T00:20:04.601Z,-43
2022-10-13T00:21:09.890Z,-43
2022-10-13T00:22:15.171Z,-44
2022-10-13T00:23:21.456Z,-43
2022-10-13T00:24:27.726Z,-43
2022-10-13T00:25:33.996Z,-44
2022-10-13T00:26:40.263Z,-43
2022-10-13T00:27:46.539Z,-44
2022-10-13T00:28:52.810Z,-43
2022-10-13T00:29:59.089Z,-44
2022-10-13T00:31:05.353Z,-43
2022-10-13T00:32:11.635Z,-43
2022-10-13T00:33:17.905Z,-43
2022-10-13T00:34:24.174Z,-43
2022-10-13T00:35:30.439Z,-42
2022-10-13T00:36:35.751Z,-43
2022-10-13T00:37:42.011Z,-44
2022-10-13T00:38:48.270Z,-43
2022-10-13T00:39:54.548Z,-43
2022-10-13T00:41:00.823Z,-44
2022-10-13T00:42:07.185Z,-43
2022-10-13T00:43:13.365Z,-42
2022-10-13T00:44:19.638Z,-43
2022-10-13T00:45:24.936Z,-43
2022-10-13T00:46:30.222Z,-43
2022-10-13T00:47:36.527Z,-43
2022-10-13T00:48:41.792Z,-43
2022-10-13T00:49:47.077Z,-43
2022-10-13T00:50:53.357Z,-44
2022-10-13T00:51:59.626Z,-43
2022-10-13T00:53:05.941Z,-45
2022-10-13T00:54:12.177Z,-43
2022-10-13T00:55:18.453Z,-44
2022-10-13T00:56:24.712Z,-44
2022-10-13T00:57:30.998Z,-43
2022-10-13T00:58:37.268Z,-43
2022-10-13T00:59:43.539Z,-44
2022-10-13T01:00:49.834Z,-44
2022-10-13T01:01:56.083Z,-43
2022-10-13T01:03:02.382Z,-43
2022-10-13T01:04:07.664Z,-44
2022-10-13T01:05:13.933Z,-43
2022-10-13T01:06:20.187Z,-44
2022-10-13T01:07:26.479Z,-44
2022-10-13T01:08:32.730Z,-43
2022-10-13T01:09:39.006Z,-43
2022-10-13T01:10:45.299Z,-43
2022-10-13T01:11:51.542Z,-43
2022-10-13T01:12:57.824Z,-43
2022-10-13T01:14:04.087Z,-43
2022-10-13T01:15:10.368Z,-43
2022-10-13T01:16:16.651Z,-44
2022-10-13T01:17:22.902Z,-43
2022-10-13T01:18:28.193Z,-43
2022-10-13T01:19:34.471Z,-43
2022-10-13T01:20:40.739Z,-43
2022-10-13T01:21:47.009Z,-43
2022-10-13T01:22:53.298Z,-43
2022-10-13T01:23:59.551Z,-43
2022-10-13T01:25:05.832Z,-43
2022-10-13T01:26:12.112Z,-43
2022-10-13T01:27:18.377Z,-43
2022-10-13T01:28:24.644Z,-43
2022-10-13T01:29:30.924Z,-43
2022-10-13T01:30:37.192Z,-43
2022-10-13T01:31:42.491Z,-43
2022-10-13T01:32:48.788Z,-43
2022-10-13T01:33:55.026Z,-43
2022-10-13T01:35:01.311Z,-44
2022-10-13T01:36:07.569Z,-43
2022-10-13T01:37:13.847Z,-44
2022-10-13T01:38:20.129Z,-43
2022-10-13T01:39:26.393Z,-44
2022-10-13T01:40:32.674Z,-43
2022-10-13T01:41:38.943Z,-43
2022-10-13T01:42:45.205Z,-43
2022-10-13T01:43:51.483Z,-43
2022-10-13T01:44:57.747Z,-42
2022-10-13T01:46:03.042Z,-43
2022-10-13T01:47:09.312Z,-43
2022-10-13T01:48:15.581Z,-43
2022-10-13T01:49:21.861Z,-43
2022-10-13T01:50:28.129Z,-43
2022-10-13T01:51:34.413Z,-43
2022-10-13T01:52:40.673Z,-43
2022-10-13T01:53:46.953Z,-43
2022-10-13T01:54:53.220Z,-43
2022-10-13T01:55:59.490Z,-44
2022-10-13T01:57:05.767Z,-43
2022-10-13T01:58:12.036Z,-43
2022-10-13T01:59:18.302Z,-43
2022-10-13T02:00:23.598Z,-43
2022-10-13T02:01:29.861Z,-43
2022-10-13T02:02:36.143Z,-43
2022-10-13T02:03:42.447Z,-43
2022-10-13T02:04:48.706Z,-43
2022-10-13T02:05:54.958Z,-43
2022-10-13T02:07:01.231Z,-43
2022-10-13T02:08:07.540Z,-42
2022-10-13T02:09:13.796Z,-43
2022-10-13T02:10:20.061Z,-43
2022-10-13T02:11:26.310Z,-44
2022-10-13T02:12:32.587Z,-43
2022-10-13T02:13:38.901Z,-43
2022-10-13T02:14:44.154Z,-43
2022-10-13T02:15:50.420Z,-44
2022-10-13T02:16:56.699Z,-43
2022-10-13T02:18:02.965Z,-43
2022-10-13T02:19:09.239Z,-43
2022-10-13T02:20:15.505Z,-43
2022-10-13T02:21:21.777Z,-43
2022-10-13T02:22:28.049Z,-44
2022-10-13T02:23:34.325Z,-43
2022-10-13T02:24:40.600Z,-45
2022-10-13T02:26:53.145Z,-44
2022-10-13T02:27:59.414Z,-44
2022-10-13T02:29:04.708Z,-45
2022-10-13T02:30:10.974Z,-45
2022-10-13T02:31:17.241Z,-43
2022-10-13T02:32:23.602Z,-45
2022-10-13T02:33:29.833Z,-45
2022-10-13T02:34:36.130Z,-44
2022-10-13T02:35:42.335Z,-45
2022-10-13T02:36:48.621Z,-45
2022-10-13T02:37:54.872Z,-45
2022-10-13T02:39:01.152Z,-44
2022-10-13T02:40:07.423Z,-45
2022-10-13T02:41:13.691Z,-46
2022-10-13T02:42:19.966Z,-44
2022-10-13T02:43:25.272Z,-45
2022-10-13T02:44:31.528Z,-45
2022-10-13T02:45:37.811Z,-46
2022-10-13T02:46:44.119Z,-45
2022-10-13T02:47:50.355Z,-45
2022-10-13T02:48:56.618Z,-43
2022-10-13T02:50:02.924Z,-46
2022-10-13T02:51:09.164Z,-45
2022-10-13T02:52:15.436Z,-44
2022-10-13T02:53:21.710Z,-46
2022-10-13T02:54:27.974Z,-46
2022-10-13T02:55:34.250Z,-45
2022-10-13T02:56:40.520Z,-44
2022-10-13T02:57:45.805Z,-45
2022-10-13T02:58:52.093Z,-45
2022-10-13T02:59:58.350Z,-44
2022-10-13T03:01:04.627Z,-44
2022-10-13T03:02:10.896Z,-45
2022-10-13T03:03:17.168Z,-46
2022-10-13T03:04:23.455Z,-44
2022-10-13T03:05:29.714Z,-46
2022-10-13T03:06:35.996Z,-45
2022-10-13T03:07:42.292Z,-45
2022-10-13T03:08:48.531Z,-45
2022-10-13T03:09:54.818Z,-45
2022-10-13T03:11:01.094Z,-45
2022-10-13T03:12:06.370Z,-46
2022-10-13T03:13:12.641Z,-46
2022-10-13T03:14:18.905Z,-46
2022-10-13T03:15:25.183Z,-45
2022-10-13T03:16:31.618Z,-45
2022-10-13T03:17:37.732Z,-45
2022-10-13T03:18:43.028Z,-45
2022-10-13T03:19:48.316Z,-45
2022-10-13T03:20:53.613Z,-46
2022-10-13T03:21:58.905Z,-44
2022-10-13T03:23:05.179Z,-44
2022-10-13T03:24:11.458Z,-46
2022-10-13T03:25:17.720Z,-43
2022-10-13T03:26:23.988Z,-45
2022-10-13T03:27:30.265Z,-44
2022-10-13T03:28:36.533Z,-43
2022-10-13T03:29:42.808Z,-45
2022-10-13T03:30:49.077Z,-46
2022-10-13T03:31:55.350Z,-44
2022-10-13T03:33:01.630Z,-45
2022-10-13T03:34:07.919Z,-44
2022-10-13T03:35:14.184Z,-43
2022-10-13T03:36:19.478Z,-45
2022-10-13T03:37:25.731Z,-44
2022-10-13T03:38:31.999Z,-44
2022-10-13T03:39:38.278Z,-43
2022-10-13T03:40:44.543Z,-44
2022-10-13T03:41:50.829Z,-43
2022-10-13T03:42:57.091Z,-46
2022-10-13T03:44:03.362Z,-43
2022-10-13T03:45:09.642Z,-44
2022-10-13T03:46:15.917Z,-43
2022-10-13T03:47:22.178Z,-44
2022-10-13T03:48:28.469Z,-43
2022-10-13T03:49:34.726Z,-43
2022-10-13T03:50:40.010Z,-44
2022-10-13T03:51:46.337Z,-43
2022-10-13T03:52:52.556Z,-44
2022-10-13T03:53:58.824Z,-43
2022-10-13T03:55:05.104Z,-43
2022-10-13T03:56:11.387Z,-43
2022-10-13T03:57:17.651Z,-43
2022-10-13T03:58:23.927Z,-46
2022-10-13T03:59:30.195Z,-45
2022-10-13T04:00:36.460Z,-45
2022-10-13T04:01:42.740Z,-43
2022-10-13T04:02:49.047Z,-43
2022-10-13T04:03:55.308Z,-44
2022-10-13T04:05:00.568Z,-43
2022-10-13T04:06:06.871Z,-43
2022-10-13T04:07:13.111Z,-44
2022-10-13T04:08:19.409Z,-43
2022-10-13T04:09:25.663Z,-43
2022-10-13T04:10:31.928Z,-43
2022-10-13T04:11:38.196Z,-43
2022-10-13T04:12:44.494Z,-43
2022-10-13T04:13:50.746Z,-43
2022-10-13T04:14:57.050Z,-43
2022-10-13T04:16:03.289Z,-43
2022-10-13T04:17:09.561Z,-43
2022-10-13T04:18:15.841Z,-43
2022-10-13T04:19:21.131Z,-44
2022-10-13T04:20:27.398Z,-43
2022-10-13T04:21:33.673Z,-43
2022-10-13T04:22:39.944Z,-43
2022-10-13T04:23:46.215Z,-43
2022-10-13T04:24:52.488Z,-44
2022-10-13T04:25:58.765Z,-43
2022-10-13T04:27:05.036Z,-43
2022-10-13T04:28:11.315Z,-43
2022-10-13T04:29:17.578Z,-43
2022-10-13T04:30:23.847Z,-43
2022-10-13T04:31:30.122Z,-44
2022-10-13T04:32:36.389Z,-44
2022-10-13T04:33:41.679Z,-43
2022-10-13T04:34:47.954Z,-43
2022-10-13T04:35:54.229Z,-43
2022-10-13T04:37:00.496Z,-43
2022-10-13T04:38:06.768Z,-43
2022-10-13T04:39:13.039Z,-43
2022-10-13T04:40:19.340Z,-43
2022-10-13T04:41:25.606Z,-43
2022-10-13T04:42:31.860Z,-41
2022-10-13T04:43:38.129Z,-42
2022-10-13T04:44:44.405Z,-43
2022-10-13T04:45:50.706Z,-43
2022-10-13T04:46:56.952Z,-43
2022-10-13T04:48:02.230Z,-43
2022-10-13T04:49:08.506Z,-42
2022-10-13T04:50:14.779Z,-43
2022-10-13T04:51:21.051Z,-43
2022-10-13T04:52:27.327Z,-43
2022-10-13T04:53:33.595Z,-43
2022-10-13T04:54:39.874Z,-43
2022-10-13T04:55:46.148Z,-43
2022-10-13T04:56:52.434Z,-44
2022-10-13T04:57:58.701Z,-43
2022-10-13T04:59:04.960Z,-43
2022-10-13T05:00:11.229Z,-43
2022-10-13T05:01:17.503Z,-40
2022-10-13T05:02:22.811Z,-43
2022-10-13T05:03:29.070Z,-43
2022-10-13T05:04:35.346Z,-43
2022-10-13T05:05:41.607Z,-43
2022-10-13T05:06:47.880Z,-43
2022-10-13T05:07:54.150Z,-44
2022-10-13T05:09:00.418Z,-43
2022-10-13T05:10:06.693Z,-43
2022-10-13T05:11:12.967Z,-41
2022-10-13T05:12:19.233Z,-43
2022-10-13T05:13:24.958Z,-42
2022-10-13T05:14:30.809Z,-43
2022-10-13T05:15:37.078Z,-42
2022-10-13T05:16:43.343Z,-42
2022-10-13T05:17:49.627Z,-44
2022-10-13T05:18:55.903Z,-43
2022-10-13T05:20:02.162Z,-43
2022-10-13T05:21:08.439Z,-42
2022-10-13T05:22:14.713Z,-43
2022-10-13T05:23:20.977Z,-43
2022-10-13T05:24:27.262Z,-42
2022-10-13T05:25:33.525Z,-42
2022-10-13T05:26:39.795Z,-42
2022-10-13T05:27:45.087Z,-40
2022-10-13T05:28:51.362Z,-42
2022-10-13T05:29:57.629Z,-42
2022-10-13T05:31:03.908Z,-42
2022-10-13T05:32:10.183Z,-42
2022-10-13T05:33:16.451Z,-42
2022-10-13T05:34:22.725Z,-43
2022-10-13T05:35:28.989Z,-43
2022-10-13T05:36:35.280Z,-41
2022-10-13T05:37:41.561Z,-41
2022-10-13T05:38:47.812Z,-41
2022-10-13T05:39:54.086Z,-42
2022-10-13T05:41:00.358Z,-40
2022-10-13T05:42:05.643Z,-43
2022-10-13T05:43:11.911Z,-42
2022-10-13T05:44:18.184Z,-41
2022-10-13T05:45:24.460Z,-42
2022-10-13T05:46:30.734Z,-43
2022-10-13T05:47:37.003Z,-43
2022-10-13T05:48:43.280Z,-43
2022-10-13T05:49:48.579Z,-43
2022-10-13T05:50:53.869Z,-41
2022-10-13T05:51:59.162Z,-41
2022-10-13T05:53:04.452Z,-43
2022-10-13T05:54:10.719Z,-41
2022-10-13T05:55:16.994Z,-43
2022-10-13T05:56:23.266Z,-41
2022-10-13T05:57:29.543Z,-42
2022-10-13T05:58:35.814Z,-43
2022-10-13T05:59:42.088Z,-42
2022-10-13T06:00:48.459Z,-42
2022-10-13T06:01:54.631Z,-41
2022-10-13T06:03:01.003Z,-41
2022-10-13T06:04:07.173Z,-40
2022-10-13T06:05:13.443Z,-42
2022-10-13T06:06:19.750Z,-42
2022-10-13T06:07:25.008Z,-43
2022-10-13T06:08:31.281Z,-42
2022-10-13T06:09:37.553Z,-43
2022-10-13T06:10:43.823Z,-43
2022-10-13T06:11:50.099Z,-42
2022-10-13T06:12:56.371Z,-42
2022-10-13T06:14:02.645Z,-42
2022-10-13T06:15:07.941Z,-42
2022-10-13T06:16:13.225Z,-41
2022-10-13T06:17:18.562Z,-42
2022-10-13T06:18:23.813Z,-42
2022-10-13T06:19:30.092Z,-42
2022-10-13T06:20:36.356Z,-42
2022-10-13T06:21:42.629Z,-41
2022-10-13T06:22:48.929Z,-40
2022-10-13T06:23:55.177Z,-43
2022-10-13T06:25:01.461Z,-42
2022-10-13T06:26:07.726Z,-41
2022-10-13T06:27:13.996Z,-41
2022-10-13T06:28:20.264Z,-42
2022-10-13T06:29:26.545Z,-43
2022-10-13T06:30:32.814Z,-41
2022-10-13T06:31:39.093Z,-42
2022-10-13T06:32:44.369Z,-41
2022-10-13T06:33:50.641Z,-41
2022-10-13T06:34:56.917Z,-43
2022-10-13T06:36:03.184Z,-40
2022-10-13T06:37:09.465Z,-41
2022-10-13T06:38:15.735Z,-41
2022-10-13T06:39:21.998Z,-41
2022-10-13T06:40:27.303Z,-42
2022-10-13T06:41:32.598Z,-39
2022-10-13T06:42:38.866Z,-40
2022-10-13T06:43:45.158Z,-41
2022-10-13T06:44:50.432Z,-40
2022-10-13T06:45:55.748Z,-40
2022-10-13T06:47:01.997Z,-40
2022-10-13T06:48:08.270Z,-40
2022-10-13T06:49:14.538Z,-40
2022-10-13T06:50:20.928Z,-41
2022-10-13T06:51:27.081Z,-41
2022-10-13T06:52:33.360Z,-41
2022-10-13T06:53:39.628Z,-41
2022-10-13T06:54:45.904Z,-40
2022-10-13T06:55:52.170Z,-41
2022-10-13T06:56:58.449Z,-40
2022-10-13T06:58:04.721Z,-40
2022-10-13T06:59:10.989Z,-39
2022-10-13T07:00:16.292Z,-40
2022-10-13T07:01:22.550Z,-40
2022-10-13T07:02:28.918Z,-39
2022-10-13T07:03:35.125Z,-40
2022-10-13T07:04:41.393Z,-40
2022-10-13T07:05:47.666Z,-40
2022-10-13T07:06:53.966Z,-40
2022-10-13T07:08:00.186Z,-40
2022-10-13T07:09:06.468Z,-40
2022-10-13T07:10:12.752Z,-39
2022-10-13T07:11:19.015Z,-40
2022-10-13T07:12:25.281Z,-39
2022-10-13T07:13:31.612Z,-40
2022-10-13T07:14:36.853Z,-40
2022-10-13T07:15:43.180Z,-39
2022-10-13T07:16:49.380Z,-40
2022-10-13T07:17:55.647Z,-41
2022-10-13T07:19:01.047Z,-40
2022-10-13T07:20:06.232Z,-39
2022-10-13T07:21:11.531Z,-40
2022-10-13T07:22:16.881Z,-39
2022-10-13T07:23:23.275Z,-40
2022-10-13T07:24:29.456Z,-38
2022-10-13T07:25:35.643Z,-40
2022-10-13T07:26:42.025Z,-41
2022-10-13T07:27:48.193Z,-40
2022-10-13T07:28:54.474Z,-41
2022-10-13T07:30:00.823Z,-39
2022-10-13T07:31:07.010Z,-39
2022-10-13T07:32:13.289Z,-42
2022-10-13T07:33:19.545Z,-39
2022-10-13T07:34:25.815Z,-40
2022-10-13T07:35:32.090Z,-40
2022-10-13T07:36:37.400Z,-37
2022-10-13T07:37:43.686Z,-40
2022-10-13T07:38:49.950Z,-39
2022-10-13T07:39:56.235Z,-39
2022-10-13T07:41:02.489Z,-38
2022-10-13T07:42:08.737Z,-39
2022-10-13T07:43:15.018Z,-38
2022-10-13T07:44:21.281Z,-38
2022-10-13T07:45:27.550Z,-40
2022-10-13T07:46:33.825Z,-38
2022-10-13T07:47:40.251Z,-40
2022-10-13T07:48:46.369Z,-40
2022-10-13T07:49:52.687Z,-38
2022-10-13T07:50:58.041Z,-38
2022-10-13T07:52:04.239Z,-39
2022-10-13T07:53:10.500Z,-38
2022-10-13T07:54:16.783Z,-39
2022-10-13T07:55:23.048Z,-38
2022-10-13T07:56:29.379Z,-38
2022-10-13T07:57:35.559Z,-38
2022-10-13T07:58:40.857Z,-38
2022-10-13T07:59:46.221Z,-39
2022-10-13T08:00:51.449Z,-39
2022-10-13T08:01:56.735Z,-39
2022-10-13T08:03:03.012Z,-37
2022-10-13T08:04:09.295Z,-38
2022-10-13T08:05:15.556Z,-38
2022-10-13T08:06:21.866Z,-40
2022-10-13T08:07:28.094Z,-38
2022-10-13T08:08:34.377Z,-38
2022-10-13T08:09:40.648Z,-38
2022-10-13T08:10:46.925Z,-38
2022-10-13T08:11:53.188Z,-39
2022-10-13T08:12:59.460Z,-37
2022-10-13T08:14:05.727Z,-37
2022-10-13T08:15:11.997Z,-37
2022-10-13T08:16:17.349Z,-37
2022-10-13T08:17:23.564Z,-37
2022-10-13T08:18:29.853Z,-37
2022-10-13T08:19:36.118Z,-37
2022-10-13T08:20:42.383Z,-37
2022-10-13T08:21:48.661Z,-37
2022-10-13T08:22:54.914Z,-36
2022-10-13T08:24:01.192Z,-36
2022-10-13T08:25:07.481Z,-36
2022-10-13T08:26:12.763Z,-37
2022-10-13T08:27:18.051Z,-34
2022-10-13T08:28:24.323Z,-37
2022-10-13T08:29:30.596Z,-36
2022-10-13T08:30:35.892Z,-34
2022-10-13T08:31:41.189Z,-35
2022-10-13T08:32:47.457Z,-36
2022-10-13T08:33:53.729Z,-34
2022-10-13T08:35:00.000Z,-34
2022-10-13T08:36:06.338Z,-34
2022-10-13T08:37:12.558Z,-35
2022-10-13T08:38:18.853Z,-34
2022-10-13T08:39:25.107Z,-34
2022-10-13T08:40:31.363Z,-32
2022-10-13T08:41:37.705Z,-34
2022-10-13T08:42:43.907Z,-34
2022-10-13T08:43:50.177Z,-36
2022-10-13T08:44:56.451Z,-34
2022-10-13T08:46:01.738Z,-34
2022-10-13T08:47:08.010Z,-34
2022-10-13T08:48:14.282Z,-34
2022-10-13T08:49:20.572Z,-34
2022-10-13T08:50:26.825Z,-33
2022-10-13T08:51:33.098Z,-34
2022-10-13T08:52:39.387Z,-34
2022-10-13T08:53:45.639Z,-34
2022-10-13T08:54:50.939Z,-33
2022-10-13T08:55:57.211Z,-33
2022-10-13T08:57:03.483Z,-34
2022-10-13T08:58:08.776Z,-34
2022-10-13T08:59:14.064Z,-32
2022-10-13T09:00:20.340Z,-33
2022-10-13T09:01:25.641Z,-33
2022-10-13T09:02:30.929Z,-31
2022-10-13T09:03:37.192Z,-33
2022-10-13T09:04:43.477Z,-33
2022-10-13T09:05:49.757Z,-34
2022-10-13T09:06:56.060Z,-33
2022-10-13T09:08:02.289Z,-33
2022-10-13T09:09:08.562Z,-33
2022-10-13T09:10:14.877Z,-34
2022-10-13T09:11:21.125Z,-32
2022-10-13T09:12:27.372Z,-33
2022-10-13T09:13:33.648Z,-31
2022-10-13T09:14:39.915Z,-33
2022-10-13T09:15:46.194Z,-31
2022-10-13T09:16:51.494Z,-33
2022-10-13T09:17:57.770Z,-34
2022-10-13T09:19:04.029Z,-33
2022-10-13T09:20:10.296Z,-33
2022-10-13T09:21:16.568Z,-32
2022-10-13T09:22:22.908Z,-33
2022-10-13T09:23:29.137Z,-32
2022-10-13T09:24:35.391Z,-32
2022-10-13T09:25:41.658Z,-33
2022-10-13T09:26:47.947Z,-32
2022-10-13T09:27:54.203Z,-32
2022-10-13T09:29:00.472Z,-32
2022-10-13T09:30:06.748Z,-31
2022-10-13T09:31:12.029Z,-32
2022-10-13T09:32:18.350Z,-31
2022-10-13T09:33:24.572Z,-30
2022-10-13T09:34:30.877Z,-31
2022-10-13T09:35:37.112Z,-32
2022-10-13T09:36:43.398Z,-31
2022-10-13T09:37:49.667Z,-30
2022-10-13T09:38:55.931Z,-31
2022-10-13T09:40:02.262Z,-31
2022-10-13T09:41:08.478Z,-31
2022-10-13T09:42:14.752Z,-31
2022-10-13T09:43:21.017Z,-31
2022-10-13T09:44:27.291Z,-31
2022-10-13T09:45:33.562Z,-30
2022-10-13T09:46:38.849Z,-31
2022-10-13T09:47:45.161Z,-31
2022-10-13T09:48:51.397Z,-30
2022-10-13T09:49:57.701Z,-31
2022-10-13T09:51:03.934Z,-30
2022-10-13T09:52:10.262Z,-31
2022-10-13T09:53:16.482Z,-31
2022-10-13T09:54:22.755Z,-31
2022-10-13T09:55:29.035Z,-31
2022-10-13T09:56:35.341Z,-30
2022-10-13T09:57:41.572Z,-32
2022-10-13T09:58:47.846Z,-30
2022-10-13T09:59:54.134Z,-30
2022-10-13T10:01:00.399Z,-31
2022-10-13T10:02:06.663Z,-31
2022-10-13T10:03:11.953Z,-30
2022-10-13T10:04:18.378Z,-31
2022-10-13T10:05:24.503Z,-30
2022-10-13T10:06:30.771Z,-30
2022-10-13T10:07:37.119Z,-31
2022-10-13T10:08:43.302Z,-29
2022-10-13T10:09:49.593Z,-30
2022-10-13T10:10:55.905Z,-29
2022-10-13T10:12:02.119Z,-29
2022-10-13T10:13:08.392Z,-30
2022-10-13T10:14:14.665Z,-30
2022-10-13T10:15:20.959Z,-31
2022-10-13T10:16:27.236Z,-29
2022-10-13T10:17:33.505Z,-29
2022-10-13T10:18:38.770Z,-28
2022-10-13T10:19:45.047Z,-30
2022-10-13T10:20:51.321Z,-30
2022-10-13T10:21:57.587Z,-30
2022-10-13T10:23:03.861Z,-29
2022-10-13T10:24:10.186Z,-29
2022-10-13T10:25:16.409Z,-28
2022-10-13T10:26:22.727Z,-30
2022-10-13T10:27:28.942Z,-29
2022-10-13T10:28:35.219Z,-28
2022-10-13T10:29:41.488Z,-28
2022-10-13T10:30:47.770Z,-28
2022-10-13T10:31:54.042Z,-29
2022-10-13T10:32:59.332Z,-29
2022-10-13T10:34:05.598Z,-28
2022-10-13T10:35:11.868Z,-28
2022-10-13T10:36:18.138Z,-29
2022-10-13T10:37:24.421Z,-28
2022-10-13T10:38:30.707Z,-28
2022-10-13T10:39:37.002Z,-28
2022-10-13T10:40:43.235Z,-28
2022-10-13T10:41:49.498Z,-28
2022-10-13T10:42:55.776Z,-28
2022-10-13T10:44:02.045Z,-28
2022-10-13T10:45:07.349Z,-28
2022-10-13T10:46:12.630Z,-29
2022-10-13T10:47:19.041Z,-28
2022-10-13T10:48:25.192Z,-28
2022-10-13T10:49:31.473Z,-25
2022-10-13T10:50:37.817Z,-28
2022-10-13T10:51:43.017Z,-28
2022-10-13T10:52:48.313Z,-27
2022-10-13T10:53:54.574Z,-28
2022-10-13T10:55:00.922Z,-27
2022-10-13T10:56:07.124Z,-28
2022-10-13T10:57:13.513Z,-28
2022-10-13T10:58:19.699Z,-28
2022-10-13T10:59:25.940Z,-28
2022-10-13T11:00:32.206Z,-29
2022-10-13T11:01:38.489Z,-28
2022-10-13T11:02:44.762Z,-28
2022-10-13T11:03:51.076Z,-28
2022-10-13T11:04:57.297Z,-28
2022-10-13T11:06:03.577Z,-27
2022-10-13T11:07:08.865Z,-27
2022-10-13T11:08:15.133Z,-28
2022-10-13T11:09:21.412Z,-28
2022-10-13T11:10:27.675Z,-28
2022-10-13T11:11:33.951Z,-25
2022-10-13T11:12:40.217Z,-27
2022-10-13T11:13:46.496Z,-26
2022-10-13T11:14:51.841Z,-26
2022-10-13T11:15:57.159Z,-26
2022-10-13T11:17:03.380Z,-26
2022-10-13T11:18:09.631Z,-27
2022-10-13T11:19:14.915Z,-25
2022-10-13T11:20:20.219Z,-25
2022-10-13T11:21:26.541Z,-25
2022-10-13T11:22:32.758Z,-26
2022-10-13T11:23:39.039Z,-25
2022-10-13T11:24:45.326Z,-27
2022-10-13T11:25:51.605Z,-25
2022-10-13T11:26:57.841Z,-25
2022-10-13T11:28:04.111Z,-25
2022-10-13T11:29:10.385Z,-26
2022-10-13T11:30:16.656Z,-25
2022-10-13T11:31:22.924Z,-27
2022-10-13T11:32:29.220Z,-26
2022-10-13T11:33:35.506Z,-25
2022-10-13T11:34:41.793Z,-26
2022-10-13T11:35:47.031Z,-25
2022-10-13T11:36:53.347Z,-25
2022-10-13T11:37:59.581Z,-24
2022-10-13T11:39:05.868Z,-26
2022-10-13T11:40:12.130Z,-26
2022-10-13T11:41:18.413Z,-25
2022-10-13T11:42:23.701Z,-25
2022-10-13T11:43:28.994Z,-25
2022-10-13T11:44:34.281Z,-25
2022-10-13T11:45:39.591Z,-25
2022-10-13T11:46:45.843Z,-25
2022-10-13T11:47:52.142Z,-25
2022-10-13T11:48:58.384Z,-25
2022-10-13T11:50:04.673Z,-25
2022-10-13T11:51:10.929Z,-25
2022-10-13T11:52:17.194Z,-25
2022-10-13T11:53:23.470Z,-25
2022-10-13T11:54:29.765Z,-25
2022-10-13T11:55:36.034Z,-25
2022-10-13T11:56:42.283Z,-25
2022-10-13T11:57:48.570Z,-25
2022-10-13T11:58:54.836Z,-25
2022-10-13T12:00:00.128Z,-24
2022-10-13T12:01:06.418Z,-25
2022-10-13T12:02:12.660Z,-25
2022-10-13T12:03:18.953Z,-25
2022-10-13T12:04:25.203Z,-25
2022-10-13T12:05:31.531Z,-25
2022-10-13T12:06:37.755Z,-25
2022-10-13T12:07:43.052Z,-25
2022-10-13T12:08:48.338Z,-25
2022-10-13T12:09:53.673Z,-24
2022-10-13T12:10:58.921Z,-25
2022-10-13T12:12:05.224Z,-25
2022-10-13T12:13:11.475Z,-25
2022-10-13T12:14:17.742Z,-23
2022-10-13T12:15:24.011Z,-25
2022-10-13T12:16:30.286Z,-25
2022-10-13T12:17:36.554Z,-25
2022-10-13T12:18:42.827Z,-26
2022-10-13T12:19:49.185Z,-25
2022-10-13T12:20:55.370Z,-25
2022-10-13T12:22:01.672Z,-25
2022-10-13T12:23:07.913Z,-26
2022-10-13T12:24:14.189Z,-26
2022-10-13T12:25:19.510Z,-25
2022-10-13T12:26:25.764Z,-26
2022-10-13T12:27:32.022Z,-25
2022-10-13T12:28:38.306Z,-25
2022-10-13T12:29:44.567Z,-26
2022-10-13T12:30:50.863Z,-25
2022-10-13T12:31:57.116Z,-24
2022-10-13T12:33:02.409Z,-25
2022-10-13T12:34:07.695Z,-25
2022-10-13T12:35:12.995Z,-24
2022-10-13T12:36:18.290Z,-25
2022-10-13T12:37:24.560Z,-25
2022-10-13T12:38:30.842Z,-24
2022-10-13T12:39:37.119Z,-25
2022-10-13T12:40:43.378Z,-25
2022-10-13T12:41:49.647Z,-25
2022-10-13T12:42:55.927Z,-25
2022-10-13T12:44:02.261Z,-24
2022-10-13T12:45:08.521Z,-25
2022-10-13T12:46:14.769Z,-24
2022-10-13T12:47:21.106Z,-25
2022-10-13T12:48:27.289Z,-25
2022-10-13T12:49:33.557Z,-25
2022-10-13T12:50:39.831Z,-24
2022-10-13T12:51:45.123Z,-25
2022-10-13T12:52:51.398Z,-25
2022-10-13T12:53:57.663Z,-24
2022-10-13T12:55:03.942Z,-25
2022-10-13T12:56:10.201Z,-25
2022-10-13T12:57:16.480Z,-24
2022-10-13T12:58:21.806Z,-24
2022-10-13T12:59:27.067Z,-25
2022-10-13T13:00:33.573Z,-25
2022-10-13T13:01:39.613Z,-26
2022-10-13T13:02:45.883Z,-25
2022-10-13T13:03:52.158Z,-24
2022-10-13T13:04:58.417Z,-24
2022-10-13T13:06:03.743Z,-25
2022-10-13T13:07:09.037Z,-24
2022-10-13T13:08:15.281Z,-25
2022-10-13T13:09:21.571Z,-25
2022-10-13T13:10:27.865Z,-24
2022-10-13T13:11:34.095Z,-25
2022-10-13T13:12:40.381Z,-24
2022-10-13T13:13:46.641Z,-24
2022-10-13T13:14:52.911Z,-24
2022-10-13T13:15:59.219Z,-25
2022-10-13T13:17:05.452Z,-24
2022-10-13T13:18:11.748Z,-24
2022-10-13T13:19:18.002Z,-24
2022-10-13T13:20:24.275Z,-23
2022-10-13T13:21:29.569Z,-24
2022-10-13T13:22:35.914Z,-23
2022-10-13T13:23:42.114Z,-25
2022-10-13T13:24:48.375Z,-23
2022-10-13T13:25:54.662Z,-24
2022-10-13T13:27:00.923Z,-24
2022-10-13T13:28:07.243Z,-24
2022-10-13T13:29:12.495Z,-24
2022-10-13T13:30:17.783Z,-23
2022-10-13T13:31:24.050Z,-24
2022-10-13T13:32:29.350Z,-24
2022-10-13T13:33:34.660Z,-23
2022-10-13T13:34:40.925Z,-24
2022-10-13T13:35:47.188Z,-23
2022-10-13T13:36:53.455Z,-24
2022-10-13T13:37:59.767Z,-22
2022-10-13T13:39:06.002Z,-23
2022-10-13T13:40:12.270Z,-23
2022-10-13T13:41:18.571Z,-24
2022-10-13T13:42:24.851Z,-23
2022-10-13T13:43:31.134Z,-24
2022-10-13T13:44:37.392Z,-22
2022-10-13T13:45:43.676Z,-22
2022-10-13T13:46:50.012Z,-23
2022-10-13T13:47:55.207Z,-23
2022-10-13T13:49:01.474Z,-23
2022-10-13T13:50:07.752Z,-24
2022-10-13T13:51:14.009Z,-23
2022-10-13T13:52:20.285Z,-24
2022-10-13T13:53:26.562Z,-24
2022-10-13T13:54:32.826Z,-24
2022-10-13T13:55:38.119Z,-24
2022-10-13T13:56:43.410Z,-23
2022-10-13T13:57:49.685Z,-23
2022-10-13T13:58:55.956Z,-22
2022-10-13T14:00:02.240Z,-22
2022-10-13T14:01:08.547Z,-23
2022-10-13T14:02:14.796Z,-23
2022-10-13T14:03:21.043Z,-23
2022-10-13T14:04:27.316Z,-24
2022-10-13T14:05:33.595Z,-24
2022-10-13T14:06:39.863Z,-23
2022-10-13T14:07:46.166Z,-24
2022-10-13T14:08:52.419Z,-23
2022-10-13T14:09:58.674Z,-23
2022-10-13T14:11:04.067Z,-23
2022-10-13T14:12:10.324Z,-24
2022-10-13T14:13:16.611Z,-25
2022-10-13T14:14:22.833Z,-23
2022-10-13T14:15:29.056Z,-24
2022-10-13T14:16:35.326Z,-24
2022-10-13T14:17:41.643Z,-24
2022-10-13T14:18:46.920Z,-23
2022-10-13T14:19:52.181Z,-22
2022-10-13T14:20:57.495Z,-24
2022-10-13T14:22:02.771Z,-23
2022-10-13T14:23:09.044Z,-25
2022-10-13T14:24:15.322Z,-23
2022-10-13T14:25:21.592Z,-24
2022-10-13T14:26:27.893Z,-25
2022-10-13T14:27:34.132Z,-23
2022-10-13T14:28:40.413Z,-25
2022-10-13T14:29:46.706Z,-25
2022-10-13T14:30:52.999Z,-24
2022-10-13T14:31:59.211Z,-25
2022-10-13T14:33:05.503Z,-25
2022-10-13T14:34:11.761Z,-24
2022-10-13T14:35:18.028Z,-24
2022-10-13T14:36:23.326Z,-25
2022-10-13T14:37:29.601Z,-25
2022-10-13T14:38:35.864Z,-25
2022-10-13T14:39:42.171Z,-25
2022-10-13T14:40:48.413Z,-25
2022-10-13T14:41:54.745Z,-24
2022-10-13T14:43:00.956Z,-24
2022-10-13T14:44:06.268Z,-25
2022-10-13T14:45:11.601Z,-24
2022-10-13T14:46:17.825Z,-25
2022-10-13T14:47:23.150Z,-24
2022-10-13T14:48:29.456Z,-24
2022-10-13T14:49:34.699Z,-23
2022-10-13T14:50:40.952Z,-25
2022-10-13T14:51:47.216Z,-23
2022-10-13T14:52:53.505Z,-25
2022-10-13T14:53:59.814Z,-24
2022-10-13T14:55:06.040Z,-25
2022-10-13T14:56:12.307Z,-25
2022-10-13T14:57:18.957Z,-23
2022-10-13T14:58:24.851Z,-25
2022-10-13T14:59:31.167Z,-24
2022-10-13T15:00:37.390Z,-24
2022-10-13T15:01:43.734Z,-24
2022-10-13T15:02:49.938Z,-24
2022-10-13T15:03:55.226Z,-23
2022-10-13T15:05:01.495Z,-24
2022-10-13T15:06:07.802Z,-25
2022-10-13T15:07:14.130Z,-25
2022-10-13T15:08:20.348Z,-25
2022-10-13T15:09:26.583Z,-26
2022-10-13T15:10:31.882Z,-25
2022-10-13T15:11:37.193Z,-25